createdAt,value
2023-05-25T00:01:01.286Z,10.57
2023-05-25T00:01:48.497Z,10.55
2023-05-25T00:02:47.522Z,10.55
2023-05-25T00:03:47.486Z,10.54
2023-05-25T00:04:47.333Z,10.55
2023-05-25T00:05:47.311Z,10.54
2023-05-25T00:06:47.320Z,10.54
2023-05-25T00:07:47.330Z,10.52
2023-05-25T00:08:47.271Z,10.52
2023-05-25T00:09:47.292Z,10.52
2023-05-25T00:10:47.269Z,10.47
2023-05-25T00:11:47.255Z,10.44
2023-05-25T00:12:47.248Z,10.43
2023-05-25T00:13:47.220Z,10.42
2023-05-25T00:14:47.221Z,10.42
2023-05-25T00:15:47.190Z,10.38
2023-05-25T00:16:47.237Z,10.38
2023-05-25T00:17:47.233Z,10.38
2023-05-25T00:18:47.190Z,10.42
2023-05-25T00:19:47.185Z,10.42
2023-05-25T00:20:47.117Z,10.39
2023-05-25T00:21:47.148Z,10.38
2023-05-25T00:22:47.109Z,10.38
2023-05-25T00:23:47.116Z,10.35
2023-05-25T00:24:47.057Z,10.34
2023-05-25T00:25:47.265Z,10.32
2023-05-25T00:26:47.077Z,10.32
2023-05-25T00:27:47.030Z,10.32
2023-05-25T00:28:47.004Z,10.34
2023-05-25T00:29:47.014Z,10.34
2023-05-25T00:30:46.998Z,10.34
2023-05-25T00:31:47.019Z,10.32
2023-05-25T00:32:47.029Z,10.34
2023-05-25T00:33:46.982Z,10.29
2023-05-25T00:34:46.939Z,10.28
2023-05-25T00:35:47.051Z,10.25
2023-05-25T00:36:46.916Z,10.22
2023-05-25T00:37:46.952Z,10.22
2023-05-25T00:38:46.909Z,10.18
2023-05-25T00:39:46.944Z,10.20
2023-05-25T00:40:46.891Z,10.18
2023-05-25T00:41:46.863Z,10.17
2023-05-25T00:42:46.848Z,10.17
2023-05-25T00:43:46.837Z,10.14
2023-05-25T00:44:46.829Z,10.14
2023-05-25T00:45:46.822Z,10.14
2023-05-25T00:46:46.878Z,10.14
2023-05-25T00:47:46.915Z,10.14
2023-05-25T00:48:46.787Z,10.14
2023-05-25T00:49:46.776Z,10.14
2023-05-25T00:50:46.788Z,10.13
2023-05-25T00:51:46.778Z,10.14
2023-05-25T00:52:46.779Z,10.14
2023-05-25T00:53:46.709Z,10.13
2023-05-25T00:54:46.680Z,10.14
2023-05-25T00:55:46.702Z,10.14
2023-05-25T00:56:46.681Z,10.11
2023-05-25T00:57:46.685Z,10.13
2023-05-25T00:58:46.636Z,10.13
2023-05-25T00:59:46.628Z,10.10
2023-05-25T01:00:46.600Z,10.10
2023-05-25T01:01:46.699Z,10.09
2023-05-25T01:02:46.704Z,10.09
2023-05-25T01:03:46.781Z,10.09
2023-05-25T01:04:46.560Z,10.07
2023-05-25T01:05:46.555Z,10.06
2023-05-25T01:06:46.524Z,10.01
2023-05-25T01:07:46.521Z,9.99
2023-05-25T01:08:46.563Z,9.99
2023-05-25T01:09:46.514Z,9.96
2023-05-25T01:10:46.510Z,9.95
2023-05-25T01:11:46.503Z,9.96
2023-05-25T01:12:46.486Z,9.95
2023-05-25T01:13:46.542Z,9.95
2023-05-25T01:14:46.430Z,9.95
2023-05-25T01:15:46.421Z,9.93
2023-05-25T01:16:46.522Z,9.93
2023-05-25T01:17:46.452Z,9.92
2023-05-25T01:18:46.437Z,9.91
2023-05-25T01:19:54.831Z,9.89
2023-05-25T01:20:47.419Z,9.91
2023-05-25T01:21:46.385Z,9.89
2023-05-25T01:22:46.337Z,9.91
2023-05-25T01:23:46.356Z,9.86
2023-05-25T01:24:46.338Z,9.85
2023-05-25T01:25:46.517Z,9.83
2023-05-25T01:26:46.298Z,9.83
2023-05-25T01:27:46.292Z,9.83
2023-05-25T01:28:46.284Z,9.85
2023-05-25T01:29:46.278Z,9.81
2023-05-25T01:30:46.244Z,9.80
2023-05-25T01:31:46.301Z,9.80
2023-05-25T01:32:46.271Z,9.80
2023-05-25T01:33:46.205Z,9.80
2023-05-25T01:34:46.174Z,9.80
2023-05-25T01:35:46.302Z,9.78
2023-05-25T01:36:46.146Z,9.77
2023-05-25T01:37:46.163Z,9.77
2023-05-25T01:38:46.151Z,9.80
2023-05-25T01:39:46.149Z,9.77
2023-05-25T01:40:46.096Z,9.78
2023-05-25T01:41:46.086Z,9.78
2023-05-25T01:42:46.085Z,9.77
2023-05-25T01:43:46.116Z,9.78
2023-05-25T01:44:46.060Z,9.78
2023-05-25T01:45:46.357Z,9.77
2023-05-25T01:46:46.034Z,9.77
2023-05-25T01:47:46.024Z,9.74
2023-05-25T01:48:46.048Z,9.75
2023-05-25T01:49:45.964Z,9.73
2023-05-25T01:50:45.957Z,9.68
2023-05-25T01:51:46.011Z,9.70
2023-05-25T01:52:46.060Z,9.68
2023-05-25T01:53:45.935Z,9.70
2023-05-25T01:54:45.925Z,9.71
2023-05-25T01:55:45.980Z,9.71
2023-05-25T01:56:45.923Z,9.71
2023-05-25T01:57:45.889Z,9.71
2023-05-25T01:58:45.945Z,9.71
2023-05-25T01:59:45.847Z,9.70
2023-05-25T02:00:45.846Z,9.68
2023-05-25T02:01:45.856Z,9.67
2023-05-25T02:02:45.888Z,9.67
2023-05-25T02:03:45.840Z,9.65
2023-05-25T02:04:45.939Z,9.63
2023-05-25T02:05:46.040Z,9.60
2023-05-25T02:06:45.792Z,9.62
2023-05-25T02:07:45.759Z,9.60
2023-05-25T02:08:45.839Z,9.62
2023-05-25T02:09:45.751Z,9.60
2023-05-25T02:10:45.743Z,9.59
2023-05-25T02:11:45.716Z,9.59
2023-05-25T02:12:45.721Z,9.56
2023-05-25T02:13:45.706Z,9.53
2023-05-25T02:14:45.661Z,9.52
2023-05-25T02:15:45.972Z,9.50
2023-05-25T02:16:45.659Z,9.48
2023-05-25T02:17:45.649Z,9.45
2023-05-25T02:18:45.678Z,9.44
2023-05-25T02:19:45.616Z,9.45
2023-05-25T02:20:45.671Z,9.48
2023-05-25T02:21:45.561Z,9.45
2023-05-25T02:22:45.577Z,9.45
2023-05-25T02:23:45.527Z,9.44
2023-05-25T02:24:45.612Z,9.45
2023-05-25T02:25:45.811Z,9.45
2023-05-25T02:26:45.502Z,9.45
2023-05-25T02:27:45.471Z,9.45
2023-05-25T02:28:45.527Z,9.48
2023-05-25T02:29:45.502Z,9.49
2023-05-25T02:30:45.456Z,9.45
2023-05-25T02:31:45.486Z,9.45
2023-05-25T02:32:45.465Z,9.44
2023-05-25T02:33:45.429Z,9.44
2023-05-25T02:34:45.474Z,9.42
2023-05-25T02:35:45.512Z,9.41
2023-05-25T02:36:45.382Z,9.37
2023-05-25T02:37:45.397Z,9.34
2023-05-25T02:38:45.371Z,9.31
2023-05-25T02:39:45.382Z,9.27
2023-05-25T02:40:45.334Z,9.24
2023-05-25T02:41:45.340Z,9.23
2023-05-25T02:42:45.303Z,9.26
2023-05-25T02:43:45.309Z,9.27
2023-05-25T02:44:45.299Z,9.27
2023-05-25T02:45:45.505Z,9.31
2023-05-25T02:46:45.348Z,9.30
2023-05-25T02:47:45.303Z,9.31
2023-05-25T02:48:45.271Z,9.32
2023-05-25T02:49:45.276Z,9.32
2023-05-25T02:50:45.194Z,9.30
2023-05-25T02:51:45.196Z,9.30
2023-05-25T02:52:45.205Z,9.27
2023-05-25T02:53:45.170Z,9.26
2023-05-25T02:54:45.186Z,9.26
2023-05-25T02:55:45.368Z,9.24
2023-05-25T02:56:45.140Z,9.26
2023-05-25T02:57:45.128Z,9.23
2023-05-25T02:58:45.107Z,9.23
2023-05-25T02:59:45.148Z,9.22
2023-05-25T03:00:45.075Z,9.19
2023-05-25T03:01:45.058Z,9.16
2023-05-25T03:02:45.087Z,9.16
2023-05-25T03:03:45.025Z,9.12
2023-05-25T03:04:45.047Z,9.12
2023-05-25T03:05:45.154Z,9.12
2023-05-25T03:06:45.012Z,9.10
2023-05-25T03:07:44.986Z,9.10
2023-05-25T03:08:44.992Z,9.10
2023-05-25T03:09:44.962Z,9.12
2023-05-25T03:10:44.973Z,9.12
2023-05-25T03:11:44.985Z,9.12
2023-05-25T03:12:44.975Z,9.13
2023-05-25T03:13:44.918Z,9.13
2023-05-25T03:14:44.879Z,9.15
2023-05-25T03:15:45.136Z,9.13
2023-05-25T03:16:44.914Z,9.12
2023-05-25T03:17:44.916Z,9.10
2023-05-25T03:18:44.832Z,9.12
2023-05-25T03:19:44.897Z,9.15
2023-05-25T03:20:44.836Z,9.17
2023-05-25T03:21:44.811Z,9.17
2023-05-25T03:22:44.794Z,9.17
2023-05-25T03:23:44.765Z,9.19
2023-05-25T03:24:44.796Z,9.19
2023-05-25T03:25:45.167Z,9.19
2023-05-25T03:26:44.737Z,9.17
2023-05-25T03:27:44.717Z,9.17
2023-05-25T03:28:44.721Z,9.17
2023-05-25T03:29:44.710Z,9.16
2023-05-25T03:30:44.723Z,9.12
2023-05-25T03:31:44.727Z,9.15
2023-05-25T03:32:44.721Z,9.15
2023-05-25T03:33:44.638Z,9.13
2023-05-25T03:34:44.636Z,9.15
2023-05-25T03:35:44.746Z,9.17
2023-05-25T03:36:44.607Z,9.19
2023-05-25T03:37:44.599Z,9.19
2023-05-25T03:38:44.625Z,9.20
2023-05-25T03:39:44.556Z,9.20
2023-05-25T03:40:44.549Z,9.20
2023-05-25T03:41:44.561Z,9.20
2023-05-25T03:42:44.527Z,9.20
2023-05-25T03:43:44.512Z,9.20
2023-05-25T03:44:44.488Z,9.22
2023-05-25T03:45:44.744Z,9.19
2023-05-25T03:46:44.541Z,9.15
2023-05-25T03:47:44.483Z,9.16
2023-05-25T03:48:44.446Z,9.17
2023-05-25T03:49:44.420Z,9.17
2023-05-25T03:50:44.436Z,9.19
2023-05-25T03:51:44.396Z,9.20
2023-05-25T03:52:44.411Z,9.17
2023-05-25T03:53:44.365Z,9.17
2023-05-25T03:54:44.365Z,9.22
2023-05-25T03:55:44.518Z,9.20
2023-05-25T03:56:44.349Z,9.22
2023-05-25T03:57:44.329Z,9.23
2023-05-25T03:58:44.331Z,9.23
2023-05-25T03:59:44.302Z,9.23
2023-05-25T04:00:44.309Z,9.24
2023-05-25T04:01:44.286Z,9.24
2023-05-25T04:02:44.331Z,9.26
2023-05-25T04:03:44.538Z,9.30
2023-05-25T04:04:44.363Z,9.30
2023-05-25T04:05:44.439Z,9.32
2023-05-25T04:06:44.241Z,9.32
2023-05-25T04:07:44.209Z,9.32
2023-05-25T04:08:44.189Z,9.34
2023-05-25T04:09:44.173Z,9.37
2023-05-25T04:10:44.155Z,9.35
2023-05-25T04:11:44.148Z,9.38
2023-05-25T04:12:44.140Z,9.37
2023-05-25T04:13:44.132Z,9.38
2023-05-25T04:14:44.102Z,9.40
2023-05-25T04:15:44.368Z,9.40
2023-05-25T04:16:44.234Z,9.38
2023-05-25T04:17:44.111Z,9.41
2023-05-25T04:18:44.060Z,9.41
2023-05-25T04:19:44.026Z,9.42
2023-05-25T04:20:44.081Z,9.45
2023-05-25T04:21:44.010Z,9.49
2023-05-25T04:22:44.014Z,9.49
2023-05-25T04:23:43.986Z,9.53
2023-05-25T04:24:43.988Z,9.50
2023-05-25T04:25:44.141Z,9.52
2023-05-25T04:26:43.962Z,9.50
2023-05-25T04:27:43.938Z,9.53
2023-05-25T04:28:43.910Z,9.55
2023-05-25T04:29:43.900Z,9.55
2023-05-25T04:30:43.946Z,9.53
2023-05-25T04:31:43.925Z,9.55
2023-05-25T04:32:45.197Z,9.56
2023-05-25T04:33:43.870Z,9.58
2023-05-25T04:34:43.894Z,9.58
2023-05-25T04:35:44.096Z,9.59
2023-05-25T04:36:43.844Z,9.60
2023-05-25T04:37:43.789Z,9.60
2023-05-25T04:38:43.788Z,9.60
2023-05-25T04:39:43.798Z,9.62
2023-05-25T04:40:43.818Z,9.62
2023-05-25T04:41:43.813Z,9.60
2023-05-25T04:42:43.777Z,9.62
2023-05-25T04:43:52.652Z,9.63
2023-05-25T04:44:44.752Z,9.63
2023-05-25T04:45:43.996Z,9.65
2023-05-25T04:46:43.740Z,9.68
2023-05-25T04:47:43.695Z,9.70
2023-05-25T04:48:43.668Z,9.68
2023-05-25T04:49:43.665Z,9.70
2023-05-25T04:50:43.640Z,9.71
2023-05-25T04:51:43.658Z,9.73
2023-05-25T04:52:43.655Z,9.75
2023-05-25T04:53:43.623Z,9.73
2023-05-25T04:54:43.622Z,9.74
2023-05-25T04:55:43.815Z,9.75
2023-05-25T04:56:43.581Z,9.74
2023-05-25T04:57:43.580Z,9.74
2023-05-25T04:58:43.558Z,9.75
2023-05-25T04:59:43.511Z,9.77
2023-05-25T05:00:43.744Z,9.78
2023-05-25T05:01:43.518Z,9.78
2023-05-25T05:02:43.534Z,9.83
2023-05-25T05:03:43.561Z,9.83
2023-05-25T05:04:43.464Z,9.85
2023-05-25T05:05:43.706Z,9.88
2023-05-25T05:06:43.472Z,9.92
2023-05-25T05:07:43.422Z,9.95
2023-05-25T05:08:43.434Z,9.98
2023-05-25T05:09:43.436Z,10.02
2023-05-25T05:10:43.620Z,10.06
2023-05-25T05:11:43.393Z,10.07
2023-05-25T05:12:43.385Z,10.09
2023-05-25T05:13:43.326Z,10.09
2023-05-25T05:14:43.374Z,10.13
2023-05-25T05:15:43.526Z,10.14
2023-05-25T05:16:43.380Z,10.14
2023-05-25T05:17:43.350Z,10.16
2023-05-25T05:18:43.310Z,10.16
2023-05-25T05:19:43.283Z,10.16
2023-05-25T05:20:43.307Z,10.18
2023-05-25T05:21:43.248Z,10.20
2023-05-25T05:22:43.252Z,10.22
2023-05-25T05:23:43.202Z,10.25
2023-05-25T05:24:43.233Z,10.28
2023-05-25T05:25:43.652Z,10.29
2023-05-25T05:26:56.380Z,10.28
2023-05-25T05:27:44.176Z,10.29
2023-05-25T05:28:43.155Z,10.32
2023-05-25T05:29:43.155Z,10.34
2023-05-25T05:30:43.149Z,10.36
2023-05-25T05:31:43.203Z,10.42
2023-05-25T05:32:45.953Z,10.43
2023-05-25T05:33:43.112Z,10.44
2023-05-25T05:34:43.096Z,10.46
2023-05-25T05:35:43.244Z,10.47
2023-05-25T05:36:56.692Z,10.49
2023-05-25T05:37:44.056Z,10.54
2023-05-25T05:38:43.043Z,10.55
2023-05-25T05:39:42.999Z,10.55
2023-05-25T05:40:42.996Z,10.58
2023-05-25T05:41:42.968Z,10.65
2023-05-25T05:42:42.978Z,10.66
2023-05-25T05:43:42.974Z,10.69
2023-05-25T05:44:42.941Z,10.70
2023-05-25T05:45:43.242Z,10.76
2023-05-25T05:46:42.982Z,10.78
2023-05-25T05:47:42.953Z,10.81
2023-05-25T05:48:42.929Z,10.86
2023-05-25T05:49:42.882Z,10.88
2023-05-25T05:50:42.865Z,10.93
2023-05-25T05:51:42.892Z,10.94
2023-05-25T05:52:42.852Z,10.94
2023-05-25T05:53:42.854Z,10.94
2023-05-25T05:54:42.813Z,10.98
2023-05-25T05:55:43.068Z,11.02
2023-05-25T05:56:42.817Z,11.05
2023-05-25T05:57:42.764Z,11.08
2023-05-25T05:58:42.751Z,11.11
2023-05-25T05:59:42.773Z,11.13
2023-05-25T06:00:42.746Z,11.16
2023-05-25T06:01:42.801Z,11.20
2023-05-25T06:02:42.732Z,11.24
2023-05-25T06:03:42.702Z,11.26
2023-05-25T06:04:42.677Z,11.30
2023-05-25T06:05:42.957Z,11.31
2023-05-25T06:06:42.694Z,11.33
2023-05-25T06:07:42.653Z,11.38
2023-05-25T06:08:42.643Z,11.39
2023-05-25T06:09:42.648Z,11.42
2023-05-25T06:10:42.649Z,11.46
2023-05-25T06:11:42.628Z,11.48
2023-05-25T06:12:42.576Z,11.48
2023-05-25T06:13:42.943Z,11.49
2023-05-25T06:14:42.540Z,11.51
2023-05-25T06:15:43.014Z,11.56
2023-05-25T06:16:42.600Z,11.60
2023-05-25T06:17:42.561Z,11.66
2023-05-25T06:18:42.515Z,11.69
2023-05-25T06:19:42.491Z,11.75
2023-05-25T06:20:42.587Z,11.78
2023-05-25T06:21:42.500Z,11.79
2023-05-25T06:22:42.463Z,11.84
2023-05-25T06:23:42.471Z,11.88
2023-05-25T06:24:42.410Z,11.94
2023-05-25T06:25:42.586Z,12.00
2023-05-25T06:26:42.444Z,12.01
2023-05-25T06:27:42.428Z,12.08
2023-05-25T06:28:42.554Z,12.12
2023-05-25T06:29:42.381Z,12.19
2023-05-25T06:30:42.372Z,12.26
2023-05-25T06:31:42.390Z,12.29
2023-05-25T06:32:42.383Z,12.36
2023-05-25T06:33:42.311Z,12.38
2023-05-25T06:34:42.333Z,12.43
2023-05-25T06:35:42.646Z,12.44
2023-05-25T06:36:42.315Z,12.51
2023-05-25T06:37:42.284Z,12.55
2023-05-25T06:38:42.295Z,12.58
2023-05-25T06:39:42.225Z,12.63
2023-05-25T06:40:42.257Z,12.70
2023-05-25T06:41:42.236Z,12.74
2023-05-25T06:42:42.273Z,12.80
2023-05-25T06:43:42.207Z,12.85
2023-05-25T06:44:42.185Z,12.91
2023-05-25T06:45:42.366Z,12.98
2023-05-25T06:46:42.323Z,13.04
2023-05-25T06:47:42.195Z,13.09
2023-05-25T06:48:42.105Z,13.13
2023-05-25T06:49:42.127Z,13.17
2023-05-25T06:50:42.098Z,13.24
2023-05-25T06:51:42.083Z,13.27
2023-05-25T06:52:42.048Z,13.29
2023-05-25T06:53:42.078Z,13.31
2023-05-25T06:54:42.050Z,13.36
2023-05-25T06:55:42.221Z,13.38
2023-05-25T06:56:42.037Z,13.43
2023-05-25T06:57:41.997Z,13.38
2023-05-25T06:58:41.973Z,13.36
2023-05-25T06:59:42.025Z,13.32
2023-05-25T07:00:42.596Z,13.28
2023-05-25T07:01:41.997Z,13.32
2023-05-25T07:02:42.007Z,13.36
2023-05-25T07:03:41.976Z,13.35
2023-05-25T07:04:41.939Z,13.38
2023-05-25T07:05:41.985Z,13.44
2023-05-25T07:06:41.955Z,13.48
2023-05-25T07:07:41.920Z,13.53
2023-05-25T07:08:41.845Z,13.53
2023-05-25T07:09:41.872Z,13.59
2023-05-25T07:10:41.834Z,13.62
2023-05-25T07:11:41.857Z,13.68
2023-05-25T07:12:41.845Z,13.66
2023-05-25T07:13:41.890Z,13.69
2023-05-25T07:14:41.793Z,13.71
2023-05-25T07:15:42.023Z,13.73
2023-05-25T07:16:41.841Z,13.76
2023-05-25T07:17:41.853Z,13.75
2023-05-25T07:18:41.739Z,13.75
2023-05-25T07:19:41.742Z,13.75
2023-05-25T07:20:41.795Z,13.83
2023-05-25T07:21:41.722Z,13.90
2023-05-25T07:22:41.702Z,13.96
2023-05-25T07:23:41.702Z,13.96
2023-05-25T07:24:41.733Z,13.96
2023-05-25T07:25:41.728Z,14.02
2023-05-25T07:26:41.655Z,14.08
2023-05-25T07:27:41.673Z,14.08
2023-05-25T07:28:41.620Z,14.12
2023-05-25T07:29:41.664Z,14.19
2023-05-25T07:30:41.600Z,14.16
2023-05-25T07:31:41.605Z,14.19
2023-05-25T07:32:41.632Z,14.21
2023-05-25T07:33:41.560Z,14.23
2023-05-25T07:34:41.549Z,14.27
2023-05-25T07:35:41.518Z,14.36
2023-05-25T07:36:41.492Z,14.45
2023-05-25T07:37:41.502Z,14.45
2023-05-25T07:38:41.498Z,14.39
2023-05-25T07:39:41.480Z,14.42
2023-05-25T07:40:41.455Z,14.46
2023-05-25T07:41:41.449Z,14.53
2023-05-25T07:42:41.505Z,14.60
2023-05-25T07:43:41.427Z,14.61
2023-05-25T07:44:41.437Z,14.64
2023-05-25T07:45:41.407Z,14.60
2023-05-25T07:46:41.734Z,14.61
2023-05-25T07:47:41.423Z,14.66
2023-05-25T07:48:41.383Z,14.67
2023-05-25T07:49:41.345Z,14.66
2023-05-25T07:50:41.338Z,14.67
2023-05-25T07:51:41.362Z,14.64
2023-05-25T07:52:41.293Z,14.66
2023-05-25T07:53:41.301Z,14.71
2023-05-25T07:54:41.336Z,14.72
2023-05-25T07:55:41.304Z,14.78
2023-05-25T07:56:41.260Z,14.86
2023-05-25T07:57:41.247Z,14.95
2023-05-25T07:58:41.202Z,15.03
2023-05-25T07:59:41.190Z,15.11
2023-05-25T08:00:41.194Z,15.20
2023-05-25T08:01:41.172Z,15.28
2023-05-25T08:02:41.318Z,15.37
2023-05-25T08:04:42.302Z,15.48
2023-05-25T08:05:41.150Z,15.49
2023-05-25T08:06:41.121Z,15.52
2023-05-25T08:07:42.804Z,15.53
2023-05-25T08:08:41.086Z,15.59
2023-05-25T08:09:41.098Z,15.62
2023-05-25T08:10:41.046Z,15.56
2023-05-25T08:11:41.082Z,15.38
2023-05-25T08:12:48.867Z,15.34
2023-05-25T08:13:42.090Z,15.40
2023-05-25T08:14:41.016Z,15.48
2023-05-25T08:15:41.022Z,15.55
2023-05-25T08:16:41.005Z,15.67
2023-05-25T08:17:41.018Z,15.60
2023-05-25T08:18:40.963Z,15.66
2023-05-25T08:19:40.972Z,15.71
2023-05-25T08:20:40.956Z,15.77
2023-05-25T08:21:40.904Z,15.78
2023-05-25T08:22:40.925Z,15.77
2023-05-25T08:23:40.933Z,15.80
2023-05-25T08:24:40.902Z,15.84
2023-05-25T08:25:40.885Z,15.88
2023-05-25T08:26:53.824Z,15.85
2023-05-25T08:27:41.883Z,15.89
2023-05-25T08:28:40.807Z,15.95
2023-05-25T08:29:40.833Z,15.92
2023-05-25T08:30:40.849Z,15.89
2023-05-25T08:31:40.864Z,15.88
2023-05-25T08:32:40.853Z,15.84
2023-05-25T08:33:40.776Z,15.78
2023-05-25T08:34:40.780Z,15.67
2023-05-25T08:35:40.731Z,15.58
2023-05-25T08:36:40.729Z,15.53
2023-05-25T08:37:40.743Z,15.49
2023-05-25T08:38:40.691Z,15.43
2023-05-25T08:39:40.680Z,15.40
2023-05-25T08:40:40.727Z,15.38
2023-05-25T08:41:40.672Z,15.37
2023-05-25T08:42:40.684Z,15.37
2023-05-25T08:43:40.644Z,15.34
2023-05-25T08:44:40.607Z,15.40
2023-05-25T08:45:45.133Z,15.49
2023-05-25T08:46:41.608Z,15.59
2023-05-25T08:47:40.663Z,15.71
2023-05-25T08:48:42.707Z,15.81
2023-05-25T08:49:40.753Z,15.84
2023-05-25T08:50:40.537Z,15.93
2023-05-25T08:51:40.532Z,16.04
2023-05-25T08:52:40.513Z,16.14
2023-05-25T08:53:40.557Z,16.23
2023-05-25T08:54:40.504Z,16.29
2023-05-25T08:55:40.501Z,16.36
2023-05-25T08:56:40.457Z,16.44
2023-05-25T08:57:40.458Z,16.48
2023-05-25T08:58:40.466Z,16.51
2023-05-25T08:59:40.457Z,16.59
2023-05-25T09:00:40.379Z,16.67
2023-05-25T09:01:40.493Z,16.65
2023-05-25T09:02:40.436Z,16.54
2023-05-25T09:03:40.443Z,16.57
2023-05-25T09:04:40.370Z,16.63
2023-05-25T09:05:40.335Z,16.65
2023-05-25T09:06:40.350Z,16.59
2023-05-25T09:07:40.334Z,16.50
2023-05-25T09:08:40.304Z,16.48
2023-05-25T09:09:40.298Z,16.51
2023-05-25T09:10:40.309Z,16.57
2023-05-25T09:11:42.233Z,16.63
2023-05-25T09:12:41.061Z,16.69
2023-05-25T09:13:40.278Z,16.72
2023-05-25T09:14:40.228Z,16.80
2023-05-25T09:15:40.219Z,16.81
2023-05-25T09:16:40.324Z,16.70
2023-05-25T09:17:40.284Z,16.67
2023-05-25T09:18:40.209Z,16.69
2023-05-25T09:19:40.221Z,16.70
2023-05-25T09:20:40.256Z,16.72
2023-05-25T09:21:40.161Z,16.72
2023-05-25T09:22:40.125Z,16.65
2023-05-25T09:23:40.126Z,16.55
2023-05-25T09:24:40.218Z,16.59
2023-05-25T09:25:40.085Z,16.66
2023-05-25T09:26:40.062Z,16.69
2023-05-25T09:27:40.095Z,16.67
2023-05-25T09:28:40.098Z,16.69
2023-05-25T09:29:40.080Z,16.67
2023-05-25T09:30:40.020Z,16.70
2023-05-25T09:31:40.117Z,16.73
2023-05-25T09:32:40.006Z,16.78
2023-05-25T09:33:40.047Z,16.84
2023-05-25T09:34:39.979Z,16.82
2023-05-25T09:35:39.962Z,16.72
2023-05-25T09:36:40.037Z,16.66
2023-05-25T09:37:40.204Z,16.65
2023-05-25T09:38:40.052Z,16.69
2023-05-25T09:39:40.006Z,16.80
2023-05-25T09:40:39.882Z,16.84
2023-05-25T09:41:39.893Z,16.92
2023-05-25T09:42:39.908Z,16.96
2023-05-25T09:43:46.721Z,16.95
2023-05-25T09:44:40.828Z,17.00
2023-05-25T09:45:39.852Z,16.88
2023-05-25T09:46:39.846Z,16.81
2023-05-25T09:47:39.837Z,16.78
2023-05-25T09:48:39.843Z,16.78
2023-05-25T09:49:39.814Z,16.77
2023-05-25T09:50:39.760Z,16.78
2023-05-25T09:51:39.776Z,16.82
2023-05-25T09:52:39.788Z,16.90
2023-05-25T09:53:39.738Z,16.84
2023-05-25T09:54:39.721Z,16.81
2023-05-25T09:55:52.031Z,16.78
2023-05-25T09:56:40.700Z,16.67
2023-05-25T09:57:39.710Z,16.63
2023-05-25T09:58:39.662Z,16.66
2023-05-25T09:59:39.702Z,16.77
2023-05-25T10:00:39.648Z,16.85
2023-05-25T10:01:41.844Z,16.91
2023-05-25T10:02:39.694Z,16.92
2023-05-25T10:03:43.824Z,16.99
2023-05-25T10:04:40.690Z,17.06
2023-05-25T10:05:39.596Z,17.21
2023-05-25T10:06:39.570Z,17.30
2023-05-25T10:07:39.572Z,17.38
2023-05-25T10:08:39.567Z,17.38
2023-05-25T10:09:39.545Z,17.27
2023-05-25T10:10:39.493Z,17.17
2023-05-25T10:11:39.537Z,17.15
2023-05-25T10:12:39.473Z,17.21
2023-05-25T10:13:39.483Z,17.25
2023-05-25T10:14:39.484Z,17.17
2023-05-25T10:15:39.459Z,17.21
2023-05-25T10:16:39.464Z,17.24
2023-05-25T10:17:39.448Z,17.27
2023-05-25T10:18:39.441Z,17.33
2023-05-25T10:19:39.436Z,17.32
2023-05-25T10:20:39.449Z,17.24
2023-05-25T10:21:39.427Z,17.22
2023-05-25T10:22:39.352Z,17.25
2023-05-25T10:23:39.333Z,17.24
2023-05-25T10:24:39.335Z,17.25
2023-05-25T10:25:39.332Z,17.32
2023-05-25T10:26:39.332Z,17.42
2023-05-25T10:27:39.298Z,17.39
2023-05-25T10:28:39.401Z,17.38
2023-05-25T10:29:39.269Z,17.40
2023-05-25T10:30:39.257Z,17.43
2023-05-25T10:31:39.255Z,17.55
2023-05-25T10:32:39.254Z,17.46
2023-05-25T10:33:39.220Z,17.22
2023-05-25T10:34:39.268Z,17.06
2023-05-25T10:35:56.089Z,17.06
2023-05-25T10:36:40.202Z,17.05
2023-05-25T10:37:39.193Z,17.07
2023-05-25T10:38:39.187Z,17.06
2023-05-25T10:39:39.159Z,17.03
2023-05-25T10:40:39.185Z,17.03
2023-05-25T10:41:39.100Z,17.10
2023-05-25T10:42:39.147Z,17.20
2023-05-25T10:43:39.072Z,17.28
2023-05-25T10:44:39.083Z,17.40
2023-05-25T10:45:39.330Z,17.49
2023-05-25T10:46:39.084Z,17.57
2023-05-25T10:47:39.056Z,17.60
2023-05-25T10:48:39.046Z,17.65
2023-05-25T10:49:39.041Z,17.70
2023-05-25T10:50:39.026Z,17.66
2023-05-25T10:51:38.969Z,17.65
2023-05-25T10:52:39.000Z,17.70
2023-05-25T10:53:39.001Z,17.49
2023-05-25T10:54:38.989Z,17.38
2023-05-25T10:55:38.961Z,17.35
2023-05-25T10:56:38.960Z,17.38
2023-05-25T10:57:38.869Z,17.42
2023-05-25T10:58:38.892Z,17.53
2023-05-25T10:59:38.899Z,17.54
2023-05-25T11:00:38.951Z,17.58
2023-05-25T11:01:38.935Z,17.57
2023-05-25T11:02:38.859Z,17.47
2023-05-25T11:03:38.846Z,17.40
2023-05-25T11:04:38.916Z,17.46
2023-05-25T11:05:38.815Z,17.55
2023-05-25T11:06:38.782Z,17.62
2023-05-25T11:07:38.779Z,17.68
2023-05-25T11:08:38.787Z,17.66
2023-05-25T11:09:38.759Z,17.54
2023-05-25T11:10:38.769Z,17.47
2023-05-25T11:11:38.697Z,17.46
2023-05-25T11:12:38.695Z,17.40
2023-05-25T11:13:40.860Z,17.39
2023-05-25T11:14:38.670Z,17.53
2023-05-25T11:15:38.708Z,17.57
2023-05-25T11:16:38.748Z,17.57
2023-05-25T11:17:38.666Z,17.66
2023-05-25T11:18:38.633Z,17.68
2023-05-25T11:19:38.625Z,17.73
2023-05-25T11:20:38.666Z,17.77
2023-05-25T11:21:38.597Z,17.76
2023-05-25T11:22:38.586Z,17.77
2023-05-25T11:23:38.572Z,17.77
2023-05-25T11:24:38.589Z,17.74
2023-05-25T11:25:38.553Z,17.81
2023-05-25T11:26:38.568Z,17.91
2023-05-25T11:27:38.489Z,17.94
2023-05-25T11:28:38.539Z,17.77
2023-05-25T11:29:38.495Z,17.77
2023-05-25T11:30:38.558Z,17.68
2023-05-25T11:31:41.482Z,17.55
2023-05-25T11:32:39.537Z,17.43
2023-05-25T11:33:38.449Z,17.30
2023-05-25T11:34:38.478Z,17.36
2023-05-25T11:35:38.413Z,17.36
2023-05-25T11:36:38.403Z,17.49
2023-05-25T11:37:38.361Z,17.58
2023-05-25T11:38:38.391Z,17.68
2023-05-25T11:39:38.376Z,17.79
2023-05-25T11:40:40.334Z,17.86
2023-05-25T11:41:38.311Z,17.84
2023-05-25T11:42:38.338Z,17.81
2023-05-25T11:43:38.291Z,17.74
2023-05-25T11:44:38.299Z,17.79
2023-05-25T11:45:38.461Z,17.79
2023-05-25T11:46:38.340Z,17.68
2023-05-25T11:47:38.401Z,17.47
2023-05-25T11:48:38.256Z,17.25
2023-05-25T11:49:38.248Z,17.18
2023-05-25T11:50:38.256Z,17.07
2023-05-25T11:51:38.197Z,17.03
2023-05-25T11:52:38.219Z,16.98
2023-05-25T11:53:38.183Z,16.98
2023-05-25T11:54:38.198Z,16.99
2023-05-25T11:55:38.184Z,17.10
2023-05-25T11:56:38.167Z,17.10
2023-05-25T11:57:38.136Z,17.18
2023-05-25T11:58:38.126Z,17.09
2023-05-25T11:59:38.104Z,17.06
2023-05-25T12:00:38.084Z,17.00
2023-05-25T12:01:38.059Z,17.02
2023-05-25T12:02:38.191Z,16.95
2023-05-25T12:03:38.143Z,16.95
2023-05-25T12:04:38.230Z,16.99
2023-05-25T12:05:38.314Z,17.05
2023-05-25T12:06:38.078Z,17.05
2023-05-25T12:07:38.051Z,17.09
2023-05-25T12:08:38.019Z,16.98
2023-05-25T12:09:37.982Z,16.96
2023-05-25T12:10:37.967Z,17.05
2023-05-25T12:11:37.940Z,17.03
2023-05-25T12:12:37.967Z,17.03
2023-05-25T12:13:37.936Z,17.10
2023-05-25T12:14:37.904Z,17.22
2023-05-25T12:15:37.911Z,17.06
2023-05-25T12:16:37.935Z,16.87
2023-05-25T12:17:37.881Z,16.88
2023-05-25T12:18:37.884Z,16.92
2023-05-25T12:19:37.880Z,16.95
2023-05-25T12:20:37.954Z,17.02
2023-05-25T12:21:39.085Z,16.98
2023-05-25T12:22:37.840Z,17.03
2023-05-25T12:23:37.794Z,17.12
2023-05-25T12:24:37.833Z,17.21
2023-05-25T12:25:49.767Z,17.32
2023-05-25T12:26:38.737Z,17.36
2023-05-25T12:27:37.761Z,17.32
2023-05-25T12:28:37.791Z,17.35
2023-05-25T12:29:37.734Z,17.39
2023-05-25T12:30:37.790Z,17.42
2023-05-25T12:31:37.713Z,17.35
2023-05-25T12:32:37.763Z,17.32
2023-05-25T12:33:37.708Z,17.32
2023-05-25T12:34:37.700Z,17.32
2023-05-25T12:35:37.639Z,17.28
2023-05-25T12:36:37.725Z,17.35
2023-05-25T12:37:37.662Z,17.42
2023-05-25T12:38:37.643Z,17.42
2023-05-25T12:39:37.585Z,17.49
2023-05-25T12:40:37.673Z,17.33
2023-05-25T12:41:37.620Z,17.32
2023-05-25T12:42:37.599Z,17.22
2023-05-25T12:43:37.547Z,17.21
2023-05-25T12:44:37.579Z,17.24
2023-05-25T12:45:37.479Z,17.30
2023-05-25T12:46:37.549Z,17.27
2023-05-25T12:47:37.535Z,17.28
2023-05-25T12:48:37.568Z,17.30
2023-05-25T12:49:37.516Z,17.32
2023-05-25T12:50:37.596Z,17.39
2023-05-25T12:51:37.479Z,17.42
2023-05-25T12:52:37.463Z,17.43
2023-05-25T12:53:37.430Z,17.45
2023-05-25T12:54:37.406Z,17.32
2023-05-25T12:55:37.393Z,17.25
2023-05-25T12:56:37.358Z,17.30
2023-05-25T12:57:37.376Z,17.35
2023-05-25T12:58:37.343Z,17.39
2023-05-25T12:59:37.325Z,17.38
2023-05-25T13:00:37.391Z,17.27
2023-05-25T13:01:37.335Z,17.24